sensor_id;sensor_type;location;lat;lon;timestamp;temperature;humidity
2465;DHT22;1244;54.326;10.074;2023-06-04T00:01:09;10.90;99.90
2465;DHT22;1244;54.326;10.074;2023-06-04T00:03:34;10.80;99.90
2465;DHT22;1244;54.326;10.074;2023-06-04T00:06:00;10.80;99.90
2465;DHT22;1244;54.326;10.074;2023-06-04T00:08:26;10.80;99.90
2465;DHT22;1244;54.326;10.074;2023-06-04T00:10:51;10.80;99.90
2465;DHT22;1244;54.326;10.074;2023-06-04T00:13:17;10.80;99.90
2465;DHT22;1244;54.326;10.074;2023-06-04T00:15:42;10.70;99.90
2465;DHT22;1244;54.326;10.074;2023-06-04T00:18:08;10.70;99.90
2465;DHT22;1244;54.326;10.074;2023-06-04T00:20:33;10.70;99.90
2465;DHT22;1244;54.326;10.074;2023-06-04T00:22:59;10.70;99.90
2465;DHT22;1244;54.326;10.074;2023-06-04T00:25:25;10.60;99.90
2465;DHT22;1244;54.326;10.074;2023-06-04T00:27:51;10.60;99.90
2465;DHT22;1244;54.326;10.074;2023-06-04T00:30:17;10.60;99.90
2465;DHT22;1244;54.326;10.074;2023-06-04T00:32:42;10.60;99.90
2465;DHT22;1244;54.326;10.074;2023-06-04T00:35:08;10.60;99.90
2465;DHT22;1244;54.326;10.074;2023-06-04T00:37:34;10.40;99.90
2465;DHT22;1244;54.326;10.074;2023-06-04T00:40:00;10.50;99.90
2465;DHT22;1244;54.326;10.074;2023-06-04T00:42:26;10.50;99.90
2465;DHT22;1244;54.326;10.074;2023-06-04T00:44:51;10.50;99.90
2465;DHT22;1244;54.326;10.074;2023-06-04T00:47:18;10.40;99.90
2465;DHT22;1244;54.326;10.074;2023-06-04T00:49:45;10.40;99.90
2465;DHT22;1244;54.326;10.074;2023-06-04T00:52:13;10.40;99.90
2465;DHT22;1244;54.326;10.074;2023-06-04T00:54:39;10.30;99.90
2465;DHT22;1244;54.326;10.074;2023-06-04T00:57:05;10.20;99.90
2465;DHT22;1244;54.326;10.074;2023-06-04T00:59:32;10.20;99.90
2465;DHT22;1244;54.326;10.074;2023-06-04T01:02:14;10.10;99.90
2465;DHT22;1244;54.326;10.074;2023-06-04T01:05:14;10.20;99.90
2465;DHT22;1244;54.326;10.074;2023-06-04T01:07:42;10.00;99.90
2465;DHT22;1244;54.326;10.074;2023-06-04T01:10:12;10.00;99.90
2465;DHT22;1244;54.326;10.074;2023-06-04T01:12:44;10.00;99.90
2465;DHT22;1244;54.326;10.074;2023-06-04T01:15:10;10.00;99.90
2465;DHT22;1244;54.326;10.074;2023-06-04T01:17:41;10.00;99.90
2465;DHT22;1244;54.326;10.074;2023-06-04T01:22:51;10.00;99.90
2465;DHT22;1244;54.326;10.074;2023-06-04T01:25:40;9.90;99.90
2465;DHT22;1244;54.326;10.074;2023-06-04T01:28:11;9.80;99.90
2465;DHT22;1244;54.326;10.074;2023-06-04T01:30:42;9.70;99.90
2465;DHT22;1244;54.326;10.074;2023-06-04T01:33:09;9.70;99.90
2465;DHT22;1244;54.326;10.074;2023-06-04T01:35:38;9.70;99.90
2465;DHT22;1244;54.326;10.074;2023-06-04T01:38:03;9.70;99.90
2465;DHT22;1244;54.326;10.074;2023-06-04T01:40:29;9.80;99.90
2465;DHT22;1244;54.326;10.074;2023-06-04T01:42:55;9.70;99.90
2465;DHT22;1244;54.326;10.074;2023-06-04T01:45:22;9.70;99.90
2465;DHT22;1244;54.326;10.074;2023-06-04T01:47:48;9.50;99.90
2465;DHT22;1244;54.326;10.074;2023-06-04T01:50:13;9.50;99.90
2465;DHT22;1244;54.326;10.074;2023-06-04T01:52:40;9.60;99.90
2465;DHT22;1244;54.326;10.074;2023-06-04T01:55:07;9.50;99.90
2465;DHT22;1244;54.326;10.074;2023-06-04T01:57:34;9.60;99.90
2465;DHT22;1244;54.326;10.074;2023-06-04T02:00:01;9.70;99.90
2465;DHT22;1244;54.326;10.074;2023-06-04T02:02:27;9.60;99.90
2465;DHT22;1244;54.326;10.074;2023-06-04T02:04:52;9.60;99.90
2465;DHT22;1244;54.326;10.074;2023-06-04T02:07:19;9.60;99.90
2465;DHT22;1244;54.326;10.074;2023-06-04T02:09:46;9.50;99.90
2465;DHT22;1244;54.326;10.074;2023-06-04T02:12:12;9.50;99.90
2465;DHT22;1244;54.326;10.074;2023-06-04T02:14:38;9.50;99.90
2465;DHT22;1244;54.326;10.074;2023-06-04T02:17:04;9.50;99.90
2465;DHT22;1244;54.326;10.074;2023-06-04T02:19:30;9.50;99.90
2465;DHT22;1244;54.326;10.074;2023-06-04T02:21:59;9.50;99.90
2465;DHT22;1244;54.326;10.074;2023-06-04T02:24:24;9.40;99.90
2465;DHT22;1244;54.326;10.074;2023-06-04T02:26:50;9.40;99.90
2465;DHT22;1244;54.326;10.074;2023-06-04T02:29:16;9.40;99.90
2465;DHT22;1244;54.326;10.074;2023-06-04T02:31:41;9.50;99.90
2465;DHT22;1244;54.326;10.074;2023-06-04T02:34:07;9.40;99.90
2465;DHT22;1244;54.326;10.074;2023-06-04T02:36:32;9.30;99.90
2465;DHT22;1244;54.326;10.074;2023-06-04T02:38:58;9.20;99.90
2465;DHT22;1244;54.326;10.074;2023-06-04T02:41:23;9.20;99.90
2465;DHT22;1244;54.326;10.074;2023-06-04T02:43:49;9.20;99.90
2465;DHT22;1244;54.326;10.074;2023-06-04T02:46:15;9.10;99.90
2465;DHT22;1244;54.326;10.074;2023-06-04T02:48:40;9.20;99.90
2465;DHT22;1244;54.326;10.074;2023-06-04T02:51:06;9.10;99.90
2465;DHT22;1244;54.326;10.074;2023-06-04T02:53:35;9.10;99.90
2465;DHT22;1244;54.326;10.074;2023-06-04T02:56:01;9.20;99.90
2465;DHT22;1244;54.326;10.074;2023-06-04T02:58:26;9.10;99.90
2465;DHT22;1244;54.326;10.074;2023-06-04T03:00:54;9.10;99.90
2465;DHT22;1244;54.326;10.074;2023-06-04T03:03:20;9.10;99.90
2465;DHT22;1244;54.326;10.074;2023-06-04T03:05:45;9.20;99.90
2465;DHT22;1244;54.326;10.074;2023-06-04T03:08:11;9.10;99.90
2465;DHT22;1244;54.326;10.074;2023-06-04T03:10:37;9.20;99.90
2465;DHT22;1244;54.326;10.074;2023-06-04T03:13:03;9.10;99.90
2465;DHT22;1244;54.326;10.074;2023-06-04T03:15:29;9.10;99.90
2465;DHT22;1244;54.326;10.074;2023-06-04T03:17:54;9.20;99.90
2465;DHT22;1244;54.326;10.074;2023-06-04T03:20:20;9.20;99.90
2465;DHT22;1244;54.326;10.074;2023-06-04T03:22:50;9.20;99.90
2465;DHT22;1244;54.326;10.074;2023-06-04T03:25:15;9.10;99.90
2465;DHT22;1244;54.326;10.074;2023-06-04T03:27:41;9.10;99.90
2465;DHT22;1244;54.326;10.074;2023-06-04T03:30:07;9.00;99.90
2465;DHT22;1244;54.326;10.074;2023-06-04T03:32:32;9.20;99.90
2465;DHT22;1244;54.326;10.074;2023-06-04T03:34:58;9.10;99.90
2465;DHT22;1244;54.326;10.074;2023-06-04T03:37:23;9.10;99.90
2465;DHT22;1244;54.326;10.074;2023-06-04T03:39:49;9.10;99.90
2465;DHT22;1244;54.326;10.074;2023-06-04T03:42:15;9.00;99.90
2465;DHT22;1244;54.326;10.074;2023-06-04T03:44:40;9.10;99.90
2465;DHT22;1244;54.326;10.074;2023-06-04T03:47:06;9.10;99.90
2465;DHT22;1244;54.326;10.074;2023-06-04T03:49:31;9.10;99.90
2465;DHT22;1244;54.326;10.074;2023-06-04T03:51:57;9.10;99.90
2465;DHT22;1244;54.326;10.074;2023-06-04T03:54:22;9.10;99.90
2465;DHT22;1244;54.326;10.074;2023-06-04T03:56:48;9.10;99.90
2465;DHT22;1244;54.326;10.074;2023-06-04T03:59:13;9.10;99.90
2465;DHT22;1244;54.326;10.074;2023-06-04T04:01:39;9.10;99.90
2465;DHT22;1244;54.326;10.074;2023-06-04T04:04:05;9.10;99.90
2465;DHT22;1244;54.326;10.074;2023-06-04T04:06:31;9.20;99.90
2465;DHT22;1244;54.326;10.074;2023-06-04T04:08:56;9.20;99.90
2465;DHT22;1244;54.326;10.074;2023-06-04T04:11:23;9.20;99.90
2465;DHT22;1244;54.326;10.074;2023-06-04T04:13:48;9.30;99.90
2465;DHT22;1244;54.326;10.074;2023-06-04T04:16:14;9.30;99.90
2465;DHT22;1244;54.326;10.074;2023-06-04T04:18:41;9.30;99.90
2465;DHT22;1244;54.326;10.074;2023-06-04T04:21:08;9.30;99.90
2465;DHT22;1244;54.326;10.074;2023-06-04T04:23:34;9.30;99.90
2465;DHT22;1244;54.326;10.074;2023-06-04T04:26:00;9.40;99.90
2465;DHT22;1244;54.326;10.074;2023-06-04T04:28:27;9.40;99.90
2465;DHT22;1244;54.326;10.074;2023-06-04T04:30:54;9.40;99.90
2465;DHT22;1244;54.326;10.074;2023-06-04T04:33:22;9.50;99.90
2465;DHT22;1244;54.326;10.074;2023-06-04T04:35:49;9.50;99.90
2465;DHT22;1244;54.326;10.074;2023-06-04T04:38:16;9.50;99.90
2465;DHT22;1244;54.326;10.074;2023-06-04T04:40:42;9.60;99.90
2465;DHT22;1244;54.326;10.074;2023-06-04T04:43:08;9.70;99.90
2465;DHT22;1244;54.326;10.074;2023-06-04T04:45:33;9.70;99.90
2465;DHT22;1244;54.326;10.074;2023-06-04T04:47:59;9.70;99.90
2465;DHT22;1244;54.326;10.074;2023-06-04T04:50:24;9.70;99.90
2465;DHT22;1244;54.326;10.074;2023-06-04T04:52:50;9.80;99.90
2465;DHT22;1244;54.326;10.074;2023-06-04T04:55:15;9.80;99.90
2465;DHT22;1244;54.326;10.074;2023-06-04T04:57:41;9.90;99.90
2465;DHT22;1244;54.326;10.074;2023-06-04T05:00:07;9.90;99.90
2465;DHT22;1244;54.326;10.074;2023-06-04T05:02:35;10.00;99.90
2465;DHT22;1244;54.326;10.074;2023-06-04T05:05:02;10.10;99.90
2465;DHT22;1244;54.326;10.074;2023-06-04T05:07:28;10.20;99.90
2465;DHT22;1244;54.326;10.074;2023-06-04T05:09:54;10.30;99.90
2465;DHT22;1244;54.326;10.074;2023-06-04T05:12:19;10.40;99.90
2465;DHT22;1244;54.326;10.074;2023-06-04T05:14:45;10.50;99.90
2465;DHT22;1244;54.326;10.074;2023-06-04T05:17:11;10.70;99.90
2465;DHT22;1244;54.326;10.074;2023-06-04T05:19:38;10.70;99.90
2465;DHT22;1244;54.326;10.074;2023-06-04T05:22:04;10.90;99.90
2465;DHT22;1244;54.326;10.074;2023-06-04T05:24:30;11.00;99.90
2465;DHT22;1244;54.326;10.074;2023-06-04T05:26:56;11.20;99.90
2465;DHT22;1244;54.326;10.074;2023-06-04T05:29:23;11.20;99.90
2465;DHT22;1244;54.326;10.074;2023-06-04T05:31:48;11.30;99.90
2465;DHT22;1244;54.326;10.074;2023-06-04T05:34:14;11.40;99.90
2465;DHT22;1244;54.326;10.074;2023-06-04T05:36:42;11.50;99.90
2465;DHT22;1244;54.326;10.074;2023-06-04T05:39:09;11.70;99.90
2465;DHT22;1244;54.326;10.074;2023-06-04T05:41:35;11.40;99.90
2465;DHT22;1244;54.326;10.074;2023-06-04T05:44:01;11.60;99.90
2465;DHT22;1244;54.326;10.074;2023-06-04T05:46:27;11.80;99.90
2465;DHT22;1244;54.326;10.074;2023-06-04T05:48:53;11.90;99.90
2465;DHT22;1244;54.326;10.074;2023-06-04T05:51:19;12.10;99.90
2465;DHT22;1244;54.326;10.074;2023-06-04T05:53:45;12.20;99.90
2465;DHT22;1244;54.326;10.074;2023-06-04T05:56:11;12.30;99.90
2465;DHT22;1244;54.326;10.074;2023-06-04T05:58:36;12.40;99.90
2465;DHT22;1244;54.326;10.074;2023-06-04T06:01:03;12.50;99.90
2465;DHT22;1244;54.326;10.074;2023-06-04T06:03:28;12.50;99.90
2465;DHT22;1244;54.326;10.074;2023-06-04T06:05:54;12.50;99.90
2465;DHT22;1244;54.326;10.074;2023-06-04T06:08:20;12.60;99.90
2465;DHT22;1244;54.326;10.074;2023-06-04T06:10:46;12.80;99.90
2465;DHT22;1244;54.326;10.074;2023-06-04T06:13:11;12.90;99.90
2465;DHT22;1244;54.326;10.074;2023-06-04T06:15:37;13.00;99.90
2465;DHT22;1244;54.326;10.074;2023-06-04T06:18:03;13.00;99.90
2465;DHT22;1244;54.326;10.074;2023-06-04T06:20:29;13.10;99.90
2465;DHT22;1244;54.326;10.074;2023-06-04T06:22:55;13.10;99.90
2465;DHT22;1244;54.326;10.074;2023-06-04T06:25:20;13.10;99.90
2465;DHT22;1244;54.326;10.074;2023-06-04T06:27:46;13.20;99.90
2465;DHT22;1244;54.326;10.074;2023-06-04T06:30:13;13.40;99.90
2465;DHT22;1244;54.326;10.074;2023-06-04T06:32:39;13.30;99.90
2465;DHT22;1244;54.326;10.074;2023-06-04T06:35:05;13.30;99.90
2465;DHT22;1244;54.326;10.074;2023-06-04T06:37:30;13.30;99.90
2465;DHT22;1244;54.326;10.074;2023-06-04T06:39:56;13.50;99.90
2465;DHT22;1244;54.326;10.074;2023-06-04T06:42:22;13.40;99.90
2465;DHT22;1244;54.326;10.074;2023-06-04T06:44:48;13.60;99.90
2465;DHT22;1244;54.326;10.074;2023-06-04T06:47:13;13.80;99.90
2465;DHT22;1244;54.326;10.074;2023-06-04T06:49:40;13.80;99.90
2465;DHT22;1244;54.326;10.074;2023-06-04T06:52:06;14.00;99.90
2465;DHT22;1244;54.326;10.074;2023-06-04T06:54:31;13.90;99.90
2465;DHT22;1244;54.326;10.074;2023-06-04T06:56:57;13.80;99.90
2465;DHT22;1244;54.326;10.074;2023-06-04T06:59:23;13.90;99.90
2465;DHT22;1244;54.326;10.074;2023-06-04T07:01:49;14.10;99.90
2465;DHT22;1244;54.326;10.074;2023-06-04T07:04:15;14.20;99.90
2465;DHT22;1244;54.326;10.074;2023-06-04T07:06:41;14.10;99.90
2465;DHT22;1244;54.326;10.074;2023-06-04T07:09:07;14.20;99.90
2465;DHT22;1244;54.326;10.074;2023-06-04T07:11:32;14.50;99.90
2465;DHT22;1244;54.326;10.074;2023-06-04T07:13:58;14.60;99.90
2465;DHT22;1244;54.326;10.074;2023-06-04T07:16:23;14.40;99.90
2465;DHT22;1244;54.326;10.074;2023-06-04T07:18:49;14.60;99.90
2465;DHT22;1244;54.326;10.074;2023-06-04T07:21:15;14.60;99.90
2465;DHT22;1244;54.326;10.074;2023-06-04T07:23:41;14.50;99.90
2465;DHT22;1244;54.326;10.074;2023-06-04T07:26:07;14.20;99.90
2465;DHT22;1244;54.326;10.074;2023-06-04T07:28:33;14.40;99.90
2465;DHT22;1244;54.326;10.074;2023-06-04T07:30:58;14.70;99.90
2465;DHT22;1244;54.326;10.074;2023-06-04T07:33:24;14.60;99.90
2465;DHT22;1244;54.326;10.074;2023-06-04T07:35:50;14.80;99.90
2465;DHT22;1244;54.326;10.074;2023-06-04T07:38:16;14.90;99.90
2465;DHT22;1244;54.326;10.074;2023-06-04T07:40:42;14.80;99.90
2465;DHT22;1244;54.326;10.074;2023-06-04T07:43:07;14.90;99.90
2465;DHT22;1244;54.326;10.074;2023-06-04T07:45:33;14.90;99.90
2465;DHT22;1244;54.326;10.074;2023-06-04T07:47:58;14.90;99.90
2465;DHT22;1244;54.326;10.074;2023-06-04T07:50:25;15.00;99.90
2465;DHT22;1244;54.326;10.074;2023-06-04T07:52:50;14.70;99.90
2465;DHT22;1244;54.326;10.074;2023-06-04T07:55:16;14.80;99.90
2465;DHT22;1244;54.326;10.074;2023-06-04T07:57:42;15.20;99.90
2465;DHT22;1244;54.326;10.074;2023-06-04T08:00:08;15.30;99.90
2465;DHT22;1244;54.326;10.074;2023-06-04T08:02:34;15.80;99.90
2465;DHT22;1244;54.326;10.074;2023-06-04T08:05:00;15.60;99.90
2465;DHT22;1244;54.326;10.074;2023-06-04T08:07:26;15.70;99.90
2465;DHT22;1244;54.326;10.074;2023-06-04T08:09:52;15.90;99.90
2465;DHT22;1244;54.326;10.074;2023-06-04T08:12:17;16.00;99.90
2465;DHT22;1244;54.326;10.074;2023-06-04T08:14:43;16.20;99.90
2465;DHT22;1244;54.326;10.074;2023-06-04T08:17:08;16.00;99.90
2465;DHT22;1244;54.326;10.074;2023-06-04T08:19:34;15.30;99.90
2465;DHT22;1244;54.326;10.074;2023-06-04T08:22:01;15.50;99.90
2465;DHT22;1244;54.326;10.074;2023-06-04T08:24:27;16.00;99.90
2465;DHT22;1244;54.326;10.074;2023-06-04T08:26:52;16.50;99.90
2465;DHT22;1244;54.326;10.074;2023-06-04T08:29:18;16.60;99.90
2465;DHT22;1244;54.326;10.074;2023-06-04T08:31:44;16.80;99.90
2465;DHT22;1244;54.326;10.074;2023-06-04T08:34:10;16.60;99.90
2465;DHT22;1244;54.326;10.074;2023-06-04T08:36:35;17.10;99.90
2465;DHT22;1244;54.326;10.074;2023-06-04T08:39:01;17.10;99.90
2465;DHT22;1244;54.326;10.074;2023-06-04T08:41:56;17.20;99.90
2465;DHT22;1244;54.326;10.074;2023-06-04T08:44:28;17.20;99.90
2465;DHT22;1244;54.326;10.074;2023-06-04T08:47:02;17.30;99.90
2465;DHT22;1244;54.326;10.074;2023-06-04T08:49:33;17.30;99.90
2465;DHT22;1244;54.326;10.074;2023-06-04T08:52:00;17.20;99.90
2465;DHT22;1244;54.326;10.074;2023-06-04T08:54:26;17.60;99.90
2465;DHT22;1244;54.326;10.074;2023-06-04T08:56:52;17.80;99.90
2465;DHT22;1244;54.326;10.074;2023-06-04T08:59:20;17.70;99.90
2465;DHT22;1244;54.326;10.074;2023-06-04T09:01:46;17.70;99.90
2465;DHT22;1244;54.326;10.074;2023-06-04T09:04:12;18.20;99.90
2465;DHT22;1244;54.326;10.074;2023-06-04T09:06:39;18.20;99.90
2465;DHT22;1244;54.326;10.074;2023-06-04T09:09:05;18.30;99.90
2465;DHT22;1244;54.326;10.074;2023-06-04T09:11:51;17.60;99.90
2465;DHT22;1244;54.326;10.074;2023-06-04T09:14:17;18.10;99.90
2465;DHT22;1244;54.326;10.074;2023-06-04T09:16:47;18.60;99.90
2465;DHT22;1244;54.326;10.074;2023-06-04T09:19:13;18.60;99.90
2465;DHT22;1244;54.326;10.074;2023-06-04T09:22:05;18.90;99.90
2465;DHT22;1244;54.326;10.074;2023-06-04T09:24:42;18.60;99.10
2465;DHT22;1244;54.326;10.074;2023-06-04T09:27:18;18.90;99.90
2465;DHT22;1244;54.326;10.074;2023-06-04T09:29:51;18.50;99.80
2465;DHT22;1244;54.326;10.074;2023-06-04T09:32:23;18.70;99.90
2465;DHT22;1244;54.326;10.074;2023-06-04T09:34:49;19.20;99.90
2465;DHT22;1244;54.326;10.074;2023-06-04T09:37:15;19.30;99.80
2465;DHT22;1244;54.326;10.074;2023-06-04T09:39:43;19.40;99.90
2465;DHT22;1244;54.326;10.074;2023-06-04T09:42:08;19.60;99.90
2465;DHT22;1244;54.326;10.074;2023-06-04T09:44:43;19.10;99.10
2465;DHT22;1244;54.326;10.074;2023-06-04T09:47:11;19.00;98.00
2465;DHT22;1244;54.326;10.074;2023-06-04T09:49:44;19.60;99.90
2465;DHT22;1244;54.326;10.074;2023-06-04T09:52:11;19.80;97.40
2465;DHT22;1244;54.326;10.074;2023-06-04T09:54:38;19.60;98.00
2465;DHT22;1244;54.326;10.074;2023-06-04T09:57:15;19.50;98.30
2465;DHT22;1244;54.326;10.074;2023-06-04T09:59:45;19.10;98.60
2465;DHT22;1244;54.326;10.074;2023-06-04T10:02:19;19.60;97.90
2465;DHT22;1244;54.326;10.074;2023-06-04T10:04:49;19.80;96.60
2465;DHT22;1244;54.326;10.074;2023-06-04T10:07:18;20.20;99.10
2465;DHT22;1244;54.326;10.074;2023-06-04T10:09:44;20.40;97.10
2465;DHT22;1244;54.326;10.074;2023-06-04T10:12:14;20.50;99.10
2465;DHT22;1244;54.326;10.074;2023-06-04T10:14:52;19.80;97.40
2465;DHT22;1244;54.326;10.074;2023-06-04T10:17:22;19.70;98.10
2465;DHT22;1244;54.326;10.074;2023-06-04T10:19:49;20.40;97.80
2465;DHT22;1244;54.326;10.074;2023-06-04T10:22:17;20.80;96.00
2465;DHT22;1244;54.326;10.074;2023-06-04T10:24:43;20.80;95.60
2465;DHT22;1244;54.326;10.074;2023-06-04T10:27:11;21.20;95.70
2465;DHT22;1244;54.326;10.074;2023-06-04T10:29:38;21.20;96.70
2465;DHT22;1244;54.326;10.074;2023-06-04T10:32:05;21.30;96.20
2465;DHT22;1244;54.326;10.074;2023-06-04T10:34:31;21.50;96.50
2465;DHT22;1244;54.326;10.074;2023-06-04T10:36:57;21.80;95.30
2465;DHT22;1244;54.326;10.074;2023-06-04T10:39:27;22.00;99.50
2465;DHT22;1244;54.326;10.074;2023-06-04T10:42:00;22.50;97.50
2465;DHT22;1244;54.326;10.074;2023-06-04T10:44:26;22.30;92.70
2465;DHT22;1244;54.326;10.074;2023-06-04T10:46:52;22.20;96.00
2465;DHT22;1244;54.326;10.074;2023-06-04T10:49:29;22.40;93.30
2465;DHT22;1244;54.326;10.074;2023-06-04T10:51:55;22.70;94.60
2465;DHT22;1244;54.326;10.074;2023-06-04T10:54:28;22.50;93.30
2465;DHT22;1244;54.326;10.074;2023-06-04T10:56:54;22.70;93.80
2465;DHT22;1244;54.326;10.074;2023-06-04T10:59:20;22.70;92.50
2465;DHT22;1244;54.326;10.074;2023-06-04T11:01:46;22.70;93.80
2465;DHT22;1244;54.326;10.074;2023-06-04T11:04:23;22.60;94.40
2465;DHT22;1244;54.326;10.074;2023-06-04T11:07:03;23.00;95.30
2465;DHT22;1244;54.326;10.074;2023-06-04T11:09:30;23.10;92.20
2465;DHT22;1244;54.326;10.074;2023-06-04T11:11:59;23.50;94.60
2465;DHT22;1244;54.326;10.074;2023-06-04T11:14:25;23.70;95.10
2465;DHT22;1244;54.326;10.074;2023-06-04T11:16:51;24.20;95.60
2465;DHT22;1244;54.326;10.074;2023-06-04T11:19:16;24.00;94.50
2465;DHT22;1244;54.326;10.074;2023-06-04T11:21:42;23.40;93.80
2465;DHT22;1244;54.326;10.074;2023-06-04T11:24:08;24.40;94.90
2465;DHT22;1244;54.326;10.074;2023-06-04T11:26:35;25.00;93.60
2465;DHT22;1244;54.326;10.074;2023-06-04T11:29:05;24.00;94.60
2465;DHT22;1244;54.326;10.074;2023-06-04T11:31:41;24.40;94.00
2465;DHT22;1244;54.326;10.074;2023-06-04T11:34:07;25.10;92.30
2465;DHT22;1244;54.326;10.074;2023-06-04T11:36:33;25.00;92.70
2465;DHT22;1244;54.326;10.074;2023-06-04T11:39:00;24.30;93.90
2465;DHT22;1244;54.326;10.074;2023-06-04T11:41:30;24.40;93.80
2465;DHT22;1244;54.326;10.074;2023-06-04T11:43:56;25.10;92.80
2465;DHT22;1244;54.326;10.074;2023-06-04T11:46:23;23.00;93.00
2465;DHT22;1244;54.326;10.074;2023-06-04T11:48:52;24.80;93.40
2465;DHT22;1244;54.326;10.074;2023-06-04T11:51:19;23.90;92.10
2465;DHT22;1244;54.326;10.074;2023-06-04T11:53:46;24.60;94.30
2465;DHT22;1244;54.326;10.074;2023-06-04T11:56:12;23.60;93.00
2465;DHT22;1244;54.326;10.074;2023-06-04T11:58:37;23.70;93.50
2465;DHT22;1244;54.326;10.074;2023-06-04T12:01:04;24.60;93.80
2465;DHT22;1244;54.326;10.074;2023-06-04T12:03:40;25.40;93.60
2465;DHT22;1244;54.326;10.074;2023-06-04T12:06:14;23.50;90.80
2465;DHT22;1244;54.326;10.074;2023-06-04T12:08:52;24.50;94.20
2465;DHT22;1244;54.326;10.074;2023-06-04T12:11:31;25.30;92.20
2465;DHT22;1244;54.326;10.074;2023-06-04T12:13:59;25.50;92.10
2465;DHT22;1244;54.326;10.074;2023-06-04T12:16:26;25.00;92.00
2465;DHT22;1244;54.326;10.074;2023-06-04T12:18:52;25.30;92.50
2465;DHT22;1244;54.326;10.074;2023-06-04T12:21:29;24.70;90.60
2465;DHT22;1244;54.326;10.074;2023-06-04T12:24:05;24.90;91.40
2465;DHT22;1244;54.326;10.074;2023-06-04T12:26:31;25.70;90.30
2465;DHT22;1244;54.326;10.074;2023-06-04T12:29:00;26.40;87.30
2465;DHT22;1244;54.326;10.074;2023-06-04T12:31:26;26.10;87.80
2465;DHT22;1244;54.326;10.074;2023-06-04T12:33:59;25.80;89.40
2465;DHT22;1244;54.326;10.074;2023-06-04T12:36:25;25.40;92.00
2465;DHT22;1244;54.326;10.074;2023-06-04T12:38:51;24.60;93.30
2465;DHT22;1244;54.326;10.074;2023-06-04T12:41:16;25.30;95.70
2465;DHT22;1244;54.326;10.074;2023-06-04T12:43:42;24.30;92.60
2465;DHT22;1244;54.326;10.074;2023-06-04T12:46:07;24.10;94.60
2465;DHT22;1244;54.326;10.074;2023-06-04T12:48:33;22.80;92.70
2465;DHT22;1244;54.326;10.074;2023-06-04T12:50:58;23.50;94.10
2465;DHT22;1244;54.326;10.074;2023-06-04T12:53:24;23.50;95.20
2465;DHT22;1244;54.326;10.074;2023-06-04T12:55:50;23.70;94.10
2465;DHT22;1244;54.326;10.074;2023-06-04T12:58:16;24.30;93.20
2465;DHT22;1244;54.326;10.074;2023-06-04T13:00:42;24.70;93.20
2465;DHT22;1244;54.326;10.074;2023-06-04T13:03:08;25.10;92.30
2465;DHT22;1244;54.326;10.074;2023-06-04T13:05:34;24.20;93.70
2465;DHT22;1244;54.326;10.074;2023-06-04T13:07:59;23.90;95.60
2465;DHT22;1244;54.326;10.074;2023-06-04T13:10:26;23.70;95.90
2465;DHT22;1244;54.326;10.074;2023-06-04T13:12:52;24.10;95.20
2465;DHT22;1244;54.326;10.074;2023-06-04T13:15:17;24.20;96.50
2465;DHT22;1244;54.326;10.074;2023-06-04T13:17:43;24.80;95.00
2465;DHT22;1244;54.326;10.074;2023-06-04T13:20:09;25.10;94.90
2465;DHT22;1244;54.326;10.074;2023-06-04T13:22:35;24.80;95.00
2465;DHT22;1244;54.326;10.074;2023-06-04T13:25:01;25.20;95.70
2465;DHT22;1244;54.326;10.074;2023-06-04T13:27:26;25.20;95.00
2465;DHT22;1244;54.326;10.074;2023-06-04T13:29:52;24.60;94.40
2465;DHT22;1244;54.326;10.074;2023-06-04T13:32:17;23.40;94.50
2465;DHT22;1244;54.326;10.074;2023-06-04T13:34:43;23.20;94.50
2465;DHT22;1244;54.326;10.074;2023-06-04T13:37:08;23.20;94.40
2465;DHT22;1244;54.326;10.074;2023-06-04T13:39:38;23.50;95.70
2465;DHT22;1244;54.326;10.074;2023-06-04T13:42:03;23.30;95.20
2465;DHT22;1244;54.326;10.074;2023-06-04T13:44:30;23.50;95.50
2465;DHT22;1244;54.326;10.074;2023-06-04T13:46:59;23.50;95.50
2465;DHT22;1244;54.326;10.074;2023-06-04T13:49:25;22.70;96.00
2465;DHT22;1244;54.326;10.074;2023-06-04T13:51:50;22.30;95.40
2465;DHT22;1244;54.326;10.074;2023-06-04T13:54:16;23.00;97.20
2465;DHT22;1244;54.326;10.074;2023-06-04T13:56:41;23.40;97.50
2465;DHT22;1244;54.326;10.074;2023-06-04T13:59:07;23.70;96.60
2465;DHT22;1244;54.326;10.074;2023-06-04T14:01:32;24.10;96.90
2465;DHT22;1244;54.326;10.074;2023-06-04T14:03:58;22.70;94.90
2465;DHT22;1244;54.326;10.074;2023-06-04T14:06:24;22.80;97.30
2465;DHT22;1244;54.326;10.074;2023-06-04T14:08:50;23.10;96.90
2465;DHT22;1244;54.326;10.074;2023-06-04T14:11:15;22.40;98.20
2465;DHT22;1244;54.326;10.074;2023-06-04T14:13:41;22.90;99.00
2465;DHT22;1244;54.326;10.074;2023-06-04T14:16:10;22.10;99.90
2465;DHT22;1244;54.326;10.074;2023-06-04T14:18:35;22.20;99.90
2465;DHT22;1244;54.326;10.074;2023-06-04T14:21:01;21.90;99.90
2465;DHT22;1244;54.326;10.074;2023-06-04T14:23:26;21.60;99.90
2465;DHT22;1244;54.326;10.074;2023-06-04T14:25:52;21.30;99.90
2465;DHT22;1244;54.326;10.074;2023-06-04T14:28:17;21.00;99.90
2465;DHT22;1244;54.326;10.074;2023-06-04T14:30:46;21.10;99.90
2465;DHT22;1244;54.326;10.074;2023-06-04T14:33:11;21.00;99.90
2465;DHT22;1244;54.326;10.074;2023-06-04T14:35:37;20.70;99.90
2465;DHT22;1244;54.326;10.074;2023-06-04T14:38:04;20.70;99.90
2465;DHT22;1244;54.326;10.074;2023-06-04T14:40:30;20.90;99.90
2465;DHT22;1244;54.326;10.074;2023-06-04T14:42:55;21.20;99.90
2465;DHT22;1244;54.326;10.074;2023-06-04T14:45:22;21.50;99.90
2465;DHT22;1244;54.326;10.074;2023-06-04T14:47:48;21.20;99.90
2465;DHT22;1244;54.326;10.074;2023-06-04T14:50:16;21.20;99.90
2465;DHT22;1244;54.326;10.074;2023-06-04T14:52:42;21.40;99.90
2465;DHT22;1244;54.326;10.074;2023-06-04T14:55:08;21.60;99.90
2465;DHT22;1244;54.326;10.074;2023-06-04T14:57:34;21.00;99.90
2465;DHT22;1244;54.326;10.074;2023-06-04T14:59:59;20.40;99.90
2465;DHT22;1244;54.326;10.074;2023-06-04T15:02:25;20.60;99.90
2465;DHT22;1244;54.326;10.074;2023-06-04T15:04:50;21.00;99.90
2465;DHT22;1244;54.326;10.074;2023-06-04T15:07:16;21.30;99.90
2465;DHT22;1244;54.326;10.074;2023-06-04T15:09:41;21.30;99.90
2465;DHT22;1244;54.326;10.074;2023-06-04T15:12:07;21.20;99.90
2465;DHT22;1244;54.326;10.074;2023-06-04T15:14:32;20.80;99.90
2465;DHT22;1244;54.326;10.074;2023-06-04T15:16:58;21.00;99.90
2465;DHT22;1244;54.326;10.074;2023-06-04T15:19:24;20.90;99.90
2465;DHT22;1244;54.326;10.074;2023-06-04T15:21:49;20.90;99.90
2465;DHT22;1244;54.326;10.074;2023-06-04T15:24:15;21.10;99.90
2465;DHT22;1244;54.326;10.074;2023-06-04T15:26:40;21.30;99.90
2465;DHT22;1244;54.326;10.074;2023-06-04T15:29:06;21.20;99.90
2465;DHT22;1244;54.326;10.074;2023-06-04T15:31:32;21.10;99.90
2465;DHT22;1244;54.326;10.074;2023-06-04T15:33:58;20.60;99.90
2465;DHT22;1244;54.326;10.074;2023-06-04T15:36:23;20.50;99.90
2465;DHT22;1244;54.326;10.074;2023-06-04T15:38:49;20.60;99.90
2465;DHT22;1244;54.326;10.074;2023-06-04T15:41:15;20.50;99.90
2465;DHT22;1244;54.326;10.074;2023-06-04T15:43:41;20.70;99.90
2465;DHT22;1244;54.326;10.074;2023-06-04T15:46:06;20.60;99.90
2465;DHT22;1244;54.326;10.074;2023-06-04T15:48:32;20.30;99.90
2465;DHT22;1244;54.326;10.074;2023-06-04T15:50:57;20.30;99.90